Back to Top

Language: 

My Weather Underground Personal Weather Station Historical Data with Graphs...

Delerius Weather Station Historical Data
Daily Summary for December 7, 2017 Units:  English    Metric   Both
« Previous Day
Next Day »
Daily Weekly Monthly Yearly Custom
  High: Low: Average:
Temperature: 54.5 °F 37.2 °F 46.2 °F
Dew Point: 52.0 °F 30.1 °F 41.2 °F
Humidity: 92 % 71 % 83 %
Wind Speed: 24.0 mph 3.0 mph 14.1 mph
Wind Gust: 35.0 mph - -
Wind:- - WSW
Pressure: 29.76 in 29.50 in -
Precipitation: 0.10 in    
Historical Graphs
 
 
Tabular Data for December 7, 2017
Time Temperature Dew Point Pressure Wind Wind Speed Wind Gust Humidity Rainfall Rate (Hourly) solar Conditions
00:00 52.0 °F 47.3 °F 29.76 in SSW 16.0 mph 23.0 mph 84 % 0.00 in 0 W/m2
00:04 52.0 °F 47.3 °F 29.76 in SSW 17.0 mph 30.0 mph 84 % 0.00 in 0 W/m2
00:09 52.2 °F 47.5 °F 29.76 in SSW 11.0 mph 18.0 mph 84 % 0.00 in 0 W/m2
00:14 52.2 °F 47.5 °F 29.76 in SSW 19.0 mph 27.0 mph 84 % 0.00 in 0 W/m2
00:19 52.2 °F 47.5 °F 29.75 in SSW 16.0 mph 29.0 mph 84 % 0.00 in 0 W/m2
00:24 52.2 °F 47.8 °F 29.75 in SSW 17.0 mph 23.0 mph 85 % 0.00 in 0 W/m2
00:29 52.2 °F 47.8 °F 29.74 in SSW 14.0 mph 24.0 mph 85 % 0.00 in 0 W/m2
00:34 52.2 °F 47.8 °F 29.74 in SSW 12.0 mph 16.0 mph 85 % 0.00 in 0 W/m2
00:39 52.2 °F 47.8 °F 29.73 in SSW 13.0 mph 22.0 mph 85 % 0.00 in 0 W/m2
00:44 52.2 °F 47.8 °F 29.73 in SSW 14.0 mph 26.0 mph 85 % 0.00 in 0 W/m2
00:46 52.2 °F 47.8 °F 29.73 in South 17.0 mph 24.0 mph 85 % 0.00 in 0 W/m2
00:51 52.2 °F 47.8 °F 29.73 in SSW 13.0 mph 22.0 mph 85 % 0.00 in 0 W/m2
00:56 52.2 °F 47.8 °F 29.72 in South 12.0 mph 21.0 mph 85 % 0.00 in 0 W/m2
01:01 52.2 °F 47.8 °F 29.72 in SSW 16.0 mph 31.0 mph 85 % 0.00 in 0 W/m2
01:06 52.2 °F 48.1 °F 29.71 in South 12.0 mph 22.0 mph 86 % 0.00 in 0 W/m2
01:11 52.2 °F 48.1 °F 29.71 in South 14.0 mph 25.0 mph 86 % 0.00 in 0 W/m2
01:16 52.2 °F 48.1 °F 29.71 in SSW 14.0 mph 20.0 mph 86 % 0.00 in 0 W/m2
01:21 52.2 °F 48.1 °F 29.71 in SSW 11.0 mph 16.0 mph 86 % 0.00 in 0 W/m2
01:26 52.2 °F 48.1 °F 29.70 in SSW 13.0 mph 23.0 mph 86 % 0.00 in 0 W/m2
01:31 52.2 °F 48.1 °F 29.69 in SSE 14.0 mph 22.0 mph 86 % 0.00 in 0 W/m2
01:36 52.2 °F 48.4 °F 29.69 in SSE 15.0 mph 24.0 mph 87 % 0.00 in 0 W/m2
01:41 52.2 °F 48.4 °F 29.68 in South 12.0 mph 20.0 mph 87 % 0.00 in 0 W/m2
01:46 52.2 °F 48.4 °F 29.68 in SSE 14.0 mph 25.0 mph 87 % 0.00 in 0 W/m2
01:51 52.2 °F 48.4 °F 29.68 in SSE 13.0 mph 22.0 mph 87 % 0.00 in 0 W/m2
01:56 52.2 °F 48.4 °F 29.68 in South 11.0 mph 18.0 mph 87 % 0.00 in 0 W/m2
02:01 52.3 °F 48.6 °F 29.67 in South 13.0 mph 24.0 mph 87 % 0.00 in 0 W/m2
02:06 52.3 °F 48.6 °F 29.67 in South 12.0 mph 20.0 mph 87 % 0.00 in 0 W/m2
02:11 52.3 °F 48.6 °F 29.66 in SSW 12.0 mph 23.0 mph 87 % 0.00 in 0 W/m2
02:16 52.5 °F 48.8 °F 29.67 in SSW 17.0 mph 34.0 mph 87 % 0.00 in 0 W/m2
02:21 52.5 °F 48.8 °F 29.67 in South 11.0 mph 20.0 mph 87 % 0.00 in 0 W/m2
02:26 52.7 °F 48.9 °F 29.66 in SSW 13.0 mph 20.0 mph 87 % 0.00 in 0 W/m2
02:31 52.7 °F 48.9 °F 29.65 in SSW 9.0 mph 16.0 mph 87 % 0.00 in 0 W/m2
02:36 52.9 °F 49.1 °F 29.65 in South 15.0 mph 26.0 mph 87 % 0.00 in 0 W/m2
02:41 53.1 °F 49.3 °F 29.64 in SSW 12.0 mph 23.0 mph 87 % 0.00 in 0 W/m2
02:46 53.2 °F 49.5 °F 29.64 in SSW 16.0 mph 23.0 mph 87 % 0.00 in 0 W/m2
02:51 53.2 °F 49.5 °F 29.64 in SSW 13.0 mph 27.0 mph 87 % 0.00 in 0 W/m2
02:56 53.4 °F 49.6 °F 29.63 in SW 17.0 mph 30.0 mph 87 % 0.00 in 0 W/m2
03:01 53.4 °F 49.6 °F 29.62 in SW 13.0 mph 21.0 mph 87 % 0.00 in 0 W/m2
03:06 53.4 °F 49.6 °F 29.62 in SSW 16.0 mph 25.0 mph 87 % 0.00 in 0 W/m2
03:12 53.4 °F 49.6 °F 29.62 in SSW 16.0 mph 23.0 mph 87 % 0.00 in 0 W/m2
03:17 53.4 °F 50.0 °F 29.62 in SSW 15.0 mph 26.0 mph 88 % 0.00 in 0 W/m2
03:22 53.4 °F 50.0 °F 29.61 in SSW 15.0 mph 26.0 mph 88 % 0.00 in 0 W/m2
03:23 53.4 °F 49.6 °F 29.61 in SSW 13.0 mph 23.0 mph 87 % 0.00 in 0 W/m2
03:24 53.4 °F 49.6 °F 29.61 in SSW 14.0 mph 26.0 mph 87 % 0.00 in 0 W/m2
03:29 53.4 °F 49.6 °F 29.60 in SSW 15.0 mph 22.0 mph 87 % 0.00 in 0 W/m2
03:34 53.6 °F 49.8 °F 29.60 in SSW 15.0 mph 26.0 mph 87 % 0.00 in 0 W/m2
03:39 53.8 °F 50.0 °F 29.60 in SSW 17.0 mph 28.0 mph 87 % 0.00 in 0 W/m2
03:44 53.8 °F 50.0 °F 29.60 in SSW 16.0 mph 24.0 mph 87 % 0.00 in 0 W/m2
03:49 53.8 °F 50.0 °F 29.59 in SSW 16.0 mph 26.0 mph 87 % 0.00 in 0 W/m2
03:54 53.8 °F 50.3 °F 29.60 in SW 19.0 mph 31.0 mph 88 % 0.00 in 0 W/m2
03:59 53.4 °F 50.3 °F 29.59 in SW 15.0 mph 23.0 mph 89 % 0.00 in 0 W/m2
04:04 53.2 °F 50.1 °F 29.59 in SW 18.0 mph 26.0 mph 89 % 0.00 in 0 W/m2
04:14 53.4 °F 50.3 °F 29.58 in SSW 13.0 mph 20.0 mph 89 % 0.00 in 0 W/m2
04:19 53.4 °F 50.3 °F 29.58 in SSW 14.0 mph 22.0 mph 89 % 0.00 in 0 W/m2
04:24 53.4 °F 50.3 °F 29.58 in SSW 13.0 mph 20.0 mph 89 % 0.00 in 0 W/m2
04:29 53.4 °F 50.3 °F 29.58 in SSW 18.0 mph 29.0 mph 89 % 0.00 in 0 W/m2
04:34 53.6 °F 50.4 °F 29.58 in SSW 16.0 mph 24.0 mph 89 % 0.00 in 0 W/m2
04:39 53.6 °F 50.4 °F 29.58 in SSW 14.0 mph 20.0 mph 89 % 0.00 in 0 W/m2
04:44 53.4 °F 50.3 °F 29.57 in SSW 16.0 mph 26.0 mph 89 % 0.00 in 0 W/m2
04:49 53.6 °F 50.4 °F 29.56 in SSW 15.0 mph 23.0 mph 89 % 0.00 in 0 W/m2
04:54 53.6 °F 50.7 °F 29.56 in SW 18.0 mph 27.0 mph 90 % 0.00 in 0 W/m2
04:59 53.4 °F 50.6 °F 29.56 in SSW 17.0 mph 25.0 mph 90 % 0.00 in 0 W/m2
05:04 53.6 °F 50.7 °F 29.55 in SSW 16.0 mph 24.0 mph 90 % 0.00 in 0 W/m2
05:09 53.6 °F 50.7 °F 29.55 in SW 16.0 mph 25.0 mph 90 % 0.00 in 0 W/m2
05:14 53.8 °F 50.9 °F 29.54 in SW 18.0 mph 28.0 mph 90 % 0.00 in 0 W/m2
05:19 54.0 °F 51.1 °F 29.54 in SW 17.0 mph 26.0 mph 90 % 0.00 in 0 W/m2
05:24 54.1 °F 51.0 °F 29.54 in SW 17.0 mph 30.0 mph 89 % 0.00 in 0 W/m2
05:29 54.3 °F 51.1 °F 29.54 in SW 16.0 mph 29.0 mph 89 % 0.00 in 0 W/m2
05:34 54.3 °F 50.8 °F 29.54 in SW 18.0 mph 29.0 mph 88 % 0.00 in 0 W/m2
05:39 54.5 °F 51.0 °F 29.54 in SSW 20.0 mph 28.0 mph 88 % 0.00 in 0 W/m2
05:44 54.3 °F 50.8 °F 29.54 in SW 16.0 mph 26.0 mph 88 % 0.00 in 0 W/m2
05:49 54.3 °F 51.1 °F 29.54 in SW 16.0 mph 27.0 mph 89 % 0.00 in 0 W/m2
05:54 54.1 °F 51.3 °F 29.54 in SSW 17.0 mph 25.0 mph 90 % 0.00 in 0 W/m2
05:59 54.1 °F 51.3 °F 29.53 in SW 17.0 mph 28.0 mph 90 % 0.00 in 0 W/m2
06:04 54.1 °F 51.3 °F 29.53 in SW 13.0 mph 22.0 mph 90 % 0.00 in 0 W/m2
06:09 54.0 °F 51.4 °F 29.53 in SW 14.0 mph 25.0 mph 91 % 0.01 in 0 W/m2
06:14 54.0 °F 51.4 °F 29.53 in SSW 16.0 mph 24.0 mph 91 % 0.01 in 0 W/m2
06:19 54.0 °F 51.4 °F 29.52 in SW 18.0 mph 26.0 mph 91 % 0.01 in 0 W/m2
06:24 54.0 °F 51.4 °F 29.52 in SW 15.0 mph 23.0 mph 91 % 0.01 in 0 W/m2
06:29 54.0 °F 51.4 °F 29.51 in SW 16.0 mph 26.0 mph 91 % 0.01 in 0 W/m2
06:32 54.0 °F 51.4 °F 29.52 in SW 16.0 mph 26.0 mph 91 % 0.01 in 0 W/m2
06:37 54.0 °F 51.4 °F 29.51 in SW 17.0 mph 23.0 mph 91 % 0.02 in 0 W/m2
06:42 54.1 °F 51.6 °F 29.51 in SW 18.0 mph 27.0 mph 91 % 0.02 in 0 W/m2
06:47 54.0 °F 51.4 °F 29.51 in SW 11.0 mph 19.0 mph 91 % 0.02 in 0 W/m2
06:52 54.0 °F 51.4 °F 29.51 in SW 15.0 mph 23.0 mph 91 % 0.02 in 0 W/m2
06:57 54.0 °F 51.4 °F 29.50 in SW 12.0 mph 21.0 mph 91 % 0.02 in 0 W/m2
07:02 54.0 °F 51.4 °F 29.50 in SW 11.0 mph 20.0 mph 91 % 0.02 in 0 W/m2
07:07 54.0 °F 51.7 °F 29.50 in SW 11.0 mph 18.0 mph 92 % 0.02 in 0 W/m2
07:12 54.0 °F 51.4 °F 29.50 in SW 11.0 mph 19.0 mph 91 % 0.02 in 0 W/m2
07:17 54.1 °F 51.6 °F 29.50 in SW 11.0 mph 20.0 mph 91 % 0.02 in 0 W/m2
07:22 54.1 °F 51.9 °F 29.50 in SW 12.0 mph 20.0 mph 92 % 0.02 in 0 W/m2
07:27 54.1 °F 51.9 °F 29.50 in SW 12.0 mph 18.0 mph 92 % 0.02 in 0 W/m2
07:32 54.3 °F 52.0 °F 29.50 in SW 14.0 mph 24.0 mph 92 % 0.02 in 0 W/m2
07:37 54.3 °F 52.0 °F 29.50 in SW 11.0 mph 18.0 mph 92 % 0.01 in 0 W/m2
07:42 54.3 °F 52.0 °F 29.51 in SW 12.0 mph 19.0 mph 92 % 0.01 in 0 W/m2
07:47 54.1 °F 51.9 °F 29.53 in WNW 14.0 mph 30.0 mph 92 % 0.01 in 0 W/m2
07:49 52.9 °F 49.4 °F 29.54 in WNW 17.0 mph 29.0 mph 88 % 0.01 in 0 W/m2
07:54 50.9 °F 47.5 °F 29.54 in WNW 13.0 mph 22.0 mph 88 % 0.02 in 0 W/m2
07:59 49.5 °F 46.4 °F 29.55 in WNW 14.0 mph 23.0 mph 89 % 0.02 in 0 W/m2
08:04 48.6 °F 45.8 °F 29.55 in WNW 15.0 mph 22.0 mph 90 % 0.02 in 0 W/m2
08:09 48.0 °F 45.5 °F 29.56 in West 11.0 mph 16.0 mph 91 % 0.02 in 0 W/m2
08:14 47.5 °F 44.7 °F 29.56 in West 13.0 mph 19.0 mph 90 % 0.02 in 0 W/m2
08:19 47.1 °F 44.0 °F 29.57 in West 15.0 mph 22.0 mph 89 % 0.02 in 5 W/m2
08:24 47.1 °F 44.0 °F 29.57 in WNW 13.0 mph 21.0 mph 89 % 0.02 in 9 W/m2
08:30 46.9 °F 43.6 °F 29.57 in West 11.0 mph 24.0 mph 88 % 0.02 in 11 W/m2
08:35 46.8 °F 42.8 °F 29.57 in West 17.0 mph 30.0 mph 86 % 0.02 in 14 W/m2
08:40 46.6 °F 42.3 °F 29.57 in West 13.0 mph 20.0 mph 85 % 0.02 in 16 W/m2
08:45 46.6 °F 42.3 °F 29.58 in West 14.0 mph 22.0 mph 85 % 0.02 in 16 W/m2
08:50 46.6 °F 42.0 °F 29.58 in West 15.0 mph 25.0 mph 84 % 0.02 in 18 W/m2
08:55 46.6 °F 42.0 °F 29.58 in West 16.0 mph 27.0 mph 84 % 0.00 in 19 W/m2
09:00 46.4 °F 41.8 °F 29.59 in West 15.0 mph 26.0 mph 84 % 0.00 in 19 W/m2
09:05 46.4 °F 41.8 °F 29.59 in West 18.0 mph 27.0 mph 84 % 0.00 in 26 W/m2
09:10 46.4 °F 41.5 °F 29.59 in West 18.0 mph 29.0 mph 83 % 0.00 in 32 W/m2
09:15 46.2 °F 41.0 °F 29.59 in WNW 18.0 mph 29.0 mph 82 % 0.00 in 39 W/m2
09:20 46.2 °F 40.7 °F 29.59 in West 14.0 mph 22.0 mph 81 % 0.00 in 42 W/m2
09:25 46.0 °F 40.5 °F 29.59 in West 13.0 mph 23.0 mph 81 % 0.00 in 40 W/m2
09:30 46.0 °F 40.5 °F 29.60 in West 18.0 mph 28.0 mph 81 % 0.00 in 37 W/m2
09:35 45.9 °F 40.0 °F 29.60 in West 18.0 mph 28.0 mph 80 % 0.00 in 35 W/m2
09:40 45.9 °F 40.0 °F 29.60 in West 19.0 mph 30.0 mph 80 % 0.00 in 37 W/m2
09:45 45.7 °F 39.9 °F 29.60 in West 16.0 mph 24.0 mph 80 % 0.00 in 39 W/m2
09:50 45.5 °F 39.7 °F 29.61 in West 16.0 mph 26.0 mph 80 % 0.00 in 54 W/m2
09:55 45.3 °F 39.5 °F 29.61 in West 15.0 mph 24.0 mph 80 % 0.00 in 121 W/m2
10:00 45.3 °F 39.2 °F 29.62 in West 20.0 mph 30.0 mph 79 % 0.00 in 128 W/m2
10:05 45.7 °F 39.5 °F 29.62 in WNW 22.0 mph 33.0 mph 79 % 0.00 in 188 W/m2
10:10 45.9 °F 39.7 °F 29.62 in WNW 17.0 mph 25.0 mph 79 % 0.00 in 199 W/m2
10:15 46.0 °F 39.6 °F 29.62 in WNW 15.0 mph 27.0 mph 78 % 0.00 in 204 W/m2
10:20 46.2 °F 39.7 °F 29.63 in WNW 19.0 mph 29.0 mph 78 % 0.00 in 214 W/m2
10:25 46.2 °F 39.4 °F 29.63 in WNW 19.0 mph 29.0 mph 77 % 0.00 in 185 W/m2
10:30 46.2 °F 39.7 °F 29.63 in WNW 18.0 mph 28.0 mph 78 % 0.00 in 165 W/m2
10:35 46.2 °F 39.4 °F 29.63 in WNW 20.0 mph 30.0 mph 77 % 0.00 in 171 W/m2
10:36 46.2 °F 39.4 °F 29.63 in WNW 19.0 mph 28.0 mph 77 % 0.00 in 163 W/m2
10:41 46.2 °F 39.4 °F 29.63 in WNW 19.0 mph 29.0 mph 77 % 0.00 in 202 W/m2
10:46 46.4 °F 39.2 °F 29.64 in WNW 18.0 mph 28.0 mph 76 % 0.00 in 186 W/m2
10:51 46.4 °F 39.2 °F 29.63 in WNW 19.0 mph 32.0 mph 76 % 0.00 in 155 W/m2
10:56 46.4 °F 39.2 °F 29.64 in WNW 18.0 mph 26.0 mph 76 % 0.00 in 135 W/m2
11:01 46.4 °F 38.9 °F 29.64 in WNW 16.0 mph 30.0 mph 75 % 0.00 in 149 W/m2
11:07 46.6 °F 39.4 °F 29.64 in WNW 17.0 mph 24.0 mph 76 % 0.00 in 135 W/m2
11:12 46.6 °F 39.1 °F 29.64 in WNW 14.0 mph 25.0 mph 75 % 0.00 in 171 W/m2
11:17 46.8 °F 39.6 °F 29.65 in WNW 11.0 mph 25.0 mph 76 % 0.00 in 156 W/m2
11:22 46.8 °F 39.3 °F 29.65 in WNW 14.0 mph 24.0 mph 75 % 0.00 in 142 W/m2
11:27 46.9 °F 39.4 °F 29.64 in WNW 15.0 mph 27.0 mph 75 % 0.00 in 97 W/m2
11:32 46.9 °F 39.4 °F 29.64 in WNW 14.0 mph 25.0 mph 75 % 0.00 in 72 W/m2
11:37 46.8 °F 39.3 °F 29.64 in WNW 13.0 mph 29.0 mph 75 % 0.00 in 81 W/m2
11:42 46.8 °F 39.3 °F 29.64 in WNW 17.0 mph 32.0 mph 75 % 0.00 in 84 W/m2
11:47 46.8 °F 39.3 °F 29.64 in WNW 16.0 mph 25.0 mph 75 % 0.00 in 83 W/m2
11:52 46.8 °F 39.3 °F 29.64 in WNW 20.0 mph 31.0 mph 75 % 0.00 in 107 W/m2
11:57 46.8 °F 39.3 °F 29.64 in WNW 16.0 mph 27.0 mph 75 % 0.00 in 116 W/m2
12:02 46.8 °F 39.3 °F 29.64 in WNW 13.0 mph 26.0 mph 75 % 0.00 in 102 W/m2
12:07 46.8 °F 39.3 °F 29.64 in WNW 16.0 mph 23.0 mph 75 % 0.00 in 98 W/m2
12:12 46.8 °F 39.3 °F 29.64 in WNW 10.0 mph 14.0 mph 75 % 0.00 in 162 W/m2
12:17 46.8 °F 38.6 °F 29.64 in WNW 18.0 mph 34.0 mph 73 % 0.00 in 156 W/m2
12:22 46.8 °F 38.6 °F 29.64 in WNW 19.0 mph 27.0 mph 73 % 0.00 in 155 W/m2
12:27 46.9 °F 38.7 °F 29.64 in West 19.0 mph 31.0 mph 73 % 0.00 in 156 W/m2
12:32 46.8 °F 38.6 °F 29.64 in WNW 21.0 mph 30.0 mph 73 % 0.00 in 162 W/m2
12:42 46.8 °F 38.2 °F 29.64 in WNW 24.0 mph 35.0 mph 72 % 0.00 in 142 W/m2
12:47 46.8 °F 38.6 °F 29.64 in WNW 16.0 mph 28.0 mph 73 % 0.00 in 141 W/m2
12:52 46.8 °F 38.6 °F 29.64 in WNW 20.0 mph 31.0 mph 73 % 0.00 in 121 W/m2
12:57 46.8 °F 38.6 °F 29.64 in WNW 19.0 mph 31.0 mph 73 % 0.00 in 113 W/m2
13:07 46.6 °F 38.4 °F 29.65 in West 14.0 mph 30.0 mph 73 % 0.00 in 81 W/m2
13:12 46.6 °F 38.4 °F 29.65 in WNW 16.0 mph 26.0 mph 73 % 0.00 in 77 W/m2
13:17 46.4 °F 38.2 °F 29.66 in West 20.0 mph 31.0 mph 73 % 0.00 in 77 W/m2
13:22 46.2 °F 38.0 °F 29.66 in WNW 17.0 mph 27.0 mph 73 % 0.00 in 74 W/m2
13:32 46.0 °F 37.5 °F 29.66 in WNW 20.0 mph 27.0 mph 72 % 0.00 in 81 W/m2
13:42 45.9 °F 37.3 °F 29.67 in WNW 17.0 mph 26.0 mph 72 % 0.00 in 77 W/m2
13:52 45.9 °F 37.3 °F 29.67 in WNW 17.0 mph 24.0 mph 72 % 0.00 in 54 W/m2
14:02 45.7 °F 37.2 °F 29.67 in West 19.0 mph 28.0 mph 72 % 0.00 in 109 W/m2
14:07 45.7 °F 37.2 °F 29.67 in WNW 19.0 mph 26.0 mph 72 % 0.00 in 153 W/m2
14:17 45.7 °F 37.2 °F 29.68 in WNW 15.0 mph 29.0 mph 72 % 0.00 in 56 W/m2
14:22 45.7 °F 37.2 °F 29.68 in WNW 15.0 mph 21.0 mph 72 % 0.00 in 47 W/m2
14:27 45.7 °F 37.5 °F 29.68 in WNW 12.0 mph 20.0 mph 73 % 0.00 in 100 W/m2
14:32 45.7 °F 37.5 °F 29.67 in West 11.0 mph 18.0 mph 73 % 0.00 in 88 W/m2
14:37 45.7 °F 37.2 °F 29.67 in West 16.0 mph 26.0 mph 72 % 0.00 in 32 W/m2
14:41 45.5 °F 37.0 °F 29.67 in West 13.0 mph 21.0 mph 72 % 0.00 in 26 W/m2
14:46 45.3 °F 36.5 °F 29.68 in WNW 17.0 mph 25.0 mph 71 % 0.00 in 23 W/m2
14:51 45.1 °F 36.6 °F 29.68 in WNW 13.0 mph 21.0 mph 72 % 0.00 in 18 W/m2
14:56 45.0 °F 36.5 °F 29.68 in WNW 15.0 mph 23.0 mph 72 % 0.00 in 16 W/m2
15:01 45.0 °F 36.8 °F 29.69 in WNW 12.0 mph 22.0 mph 73 % 0.00 in 7 W/m2
15:11 43.3 °F 37.6 °F 29.68 in WNW 9.0 mph 15.0 mph 80 % 0.01 in 16 W/m2
15:21 42.6 °F 37.5 °F 29.68 in WNW 9.0 mph 14.0 mph 82 % 0.01 in 7 W/m2
15:36 42.4 °F 37.6 °F 29.69 in West 10.0 mph 18.0 mph 83 % 0.01 in 7 W/m2
15:37 42.4 °F 37.6 °F 29.69 in West 11.0 mph 18.0 mph 83 % 0.01 in 7 W/m2
15:42 42.3 °F 36.8 °F 29.69 in West 16.0 mph 27.0 mph 81 % 0.01 in 5 W/m2
15:47 42.4 °F 36.7 °F 29.69 in West 14.0 mph 21.0 mph 80 % 0.01 in 0 W/m2
15:52 42.4 °F 36.4 °F 29.69 in West 17.0 mph 27.0 mph 79 % 0.01 in 0 W/m2
15:57 42.3 °F 35.9 °F 29.69 in WNW 15.0 mph 22.0 mph 78 % 0.01 in 0 W/m2
16:02 42.3 °F 35.9 °F 29.69 in West 15.0 mph 26.0 mph 78 % 0.01 in 0 W/m2
16:07 42.1 °F 35.7 °F 29.69 in WNW 13.0 mph 25.0 mph 78 % 0.00 in 0 W/m2
16:12 41.9 °F 35.5 °F 29.69 in WNW 13.0 mph 20.0 mph 78 % 0.00 in 0 W/m2
16:17 41.9 °F 35.5 °F 29.69 in West 14.0 mph 21.0 mph 78 % 0.00 in 0 W/m2
16:22 41.7 °F 35.4 °F 29.70 in West 14.0 mph 24.0 mph 78 % 0.00 in 0 W/m2
16:27 41.7 °F 35.4 °F 29.70 in West 11.0 mph 16.0 mph 78 % 0.00 in 0 W/m2
16:32 41.5 °F 35.5 °F 29.70 in West 14.0 mph 19.0 mph 79 % 0.00 in 0 W/m2
16:37 41.5 °F 35.5 °F 29.70 in WNW 13.0 mph 20.0 mph 79 % 0.00 in 0 W/m2
16:43 41.5 °F 35.8 °F 29.70 in WNW 12.0 mph 18.0 mph 80 % 0.00 in 0 W/m2
16:48 41.7 °F 36.3 °F 29.70 in WNW 9.0 mph 15.0 mph 81 % 0.00 in 0 W/m2
16:53 41.7 °F 36.3 °F 29.70 in WNW 7.0 mph 11.0 mph 81 % 0.00 in 0 W/m2
17:03 41.5 °F 36.8 °F 29.71 in NW 9.0 mph 14.0 mph 83 % 0.00 in 0 W/m2
17:04 41.4 °F 36.9 °F 29.71 in NW 8.0 mph 14.0 mph 84 % 0.00 in 0 W/m2
17:09 41.4 °F 37.2 °F 29.71 in WNW 8.0 mph 12.0 mph 85 % 0.00 in 0 W/m2
17:14 41.2 °F 37.0 °F 29.72 in WNW 8.0 mph 11.0 mph 85 % 0.00 in 0 W/m2
17:19 40.8 °F 37.0 °F 29.72 in NW 9.0 mph 14.0 mph 86 % 0.00 in 0 W/m2
17:24 40.8 °F 37.0 °F 29.73 in NW 12.0 mph 26.0 mph 86 % 0.00 in 0 W/m2
17:29 39.9 °F 35.8 °F 29.73 in NW 13.0 mph 22.0 mph 85 % 0.02 in 0 W/m2
17:34 39.0 °F 35.5 °F 29.72 in WNW 10.0 mph 16.0 mph 87 % 0.02 in 0 W/m2
17:39 38.8 °F 35.6 °F 29.72 in WNW 10.0 mph 15.0 mph 88 % 0.02 in 0 W/m2
17:44 38.7 °F 35.7 °F 29.73 in WNW 11.0 mph 18.0 mph 89 % 0.02 in 0 W/m2
17:49 38.7 °F 36.0 °F 29.73 in WNW 12.0 mph 18.0 mph 90 % 0.02 in 0 W/m2
17:54 38.7 °F 36.0 °F 29.72 in WNW 11.0 mph 18.0 mph 90 % 0.02 in 0 W/m2
17:59 38.7 °F 36.0 °F 29.72 in West 10.0 mph 16.0 mph 90 % 0.02 in 0 W/m2
18:00 38.8 °F 36.2 °F 29.72 in West 10.0 mph 16.0 mph 90 % 0.02 in 0 W/m2
18:05 38.8 °F 36.2 °F 29.73 in West 12.0 mph 19.0 mph 90 % 0.02 in 0 W/m2
18:10 39.0 °F 36.6 °F 29.73 in WNW 13.0 mph 25.0 mph 91 % 0.02 in 0 W/m2
18:15 39.0 °F 36.3 °F 29.73 in WNW 18.0 mph 28.0 mph 90 % 0.03 in 0 W/m2
18:20 39.0 °F 36.1 °F 29.73 in WNW 17.0 mph 26.0 mph 89 % 0.03 in 0 W/m2
18:25 38.8 °F 36.2 °F 29.74 in WNW 11.0 mph 16.0 mph 90 % 0.03 in 0 W/m2
18:30 38.8 °F 36.2 °F 29.74 in WNW 15.0 mph 27.0 mph 90 % 0.02 in 0 W/m2
18:35 38.8 °F 36.2 °F 29.74 in West 14.0 mph 21.0 mph 90 % 0.01 in 0 W/m2
18:40 38.8 °F 36.2 °F 29.74 in West 11.0 mph 16.0 mph 90 % 0.01 in 0 W/m2
18:45 38.7 °F 36.0 °F 29.74 in WNW 15.0 mph 27.0 mph 90 % 0.01 in 0 W/m2
18:50 38.5 °F 35.5 °F 29.73 in WNW 19.0 mph 31.0 mph 89 % 0.01 in 0 W/m2
18:55 38.3 °F 35.3 °F 29.73 in West 14.0 mph 26.0 mph 89 % 0.01 in 0 W/m2
19:05 37.8 °F 34.8 °F 29.73 in West 12.0 mph 20.0 mph 89 % 0.02 in 0 W/m2
19:10 37.8 °F 35.1 °F 29.74 in West 12.0 mph 19.0 mph 90 % 0.02 in 0 W/m2
19:15 37.6 °F 34.6 °F 29.74 in West 11.0 mph 15.0 mph 89 % 0.01 in 0 W/m2
19:20 37.6 °F 34.9 °F 29.74 in West 10.0 mph 18.0 mph 90 % 0.01 in 0 W/m2
19:25 37.6 °F 34.9 °F 29.74 in West 12.0 mph 19.0 mph 90 % 0.01 in 0 W/m2
19:35 38.1 °F 35.2 °F 29.73 in West 13.0 mph 19.0 mph 89 % 0.01 in 0 W/m2
19:40 38.5 °F 35.2 °F 29.73 in West 14.0 mph 26.0 mph 88 % 0.01 in 0 W/m2
19:45 38.7 °F 35.1 °F 29.74 in West 14.0 mph 20.0 mph 87 % 0.01 in 0 W/m2
19:50 38.7 °F 34.5 °F 29.74 in West 13.0 mph 20.0 mph 85 % 0.01 in 0 W/m2
19:55 38.5 °F 34.1 °F 29.74 in WNW 14.0 mph 30.0 mph 84 % 0.01 in 0 W/m2
20:00 38.5 °F 33.8 °F 29.74 in WNW 15.0 mph 23.0 mph 83 % 0.00 in 0 W/m2
20:05 38.5 °F 33.5 °F 29.74 in West 14.0 mph 22.0 mph 82 % 0.00 in 0 W/m2
20:10 38.5 °F 33.2 °F 29.73 in WNW 17.0 mph 27.0 mph 81 % 0.00 in 0 W/m2
20:15 38.5 °F 33.2 °F 29.73 in West 16.0 mph 23.0 mph 81 % 0.00 in 0 W/m2
20:17 38.5 °F 32.8 °F 29.73 in WNW 13.0 mph 20.0 mph 80 % 0.00 in 0 W/m2
20:22 38.5 °F 32.5 °F 29.73 in West 17.0 mph 28.0 mph 79 % 0.00 in 0 W/m2
20:27 38.5 °F 32.2 °F 29.73 in West 19.0 mph 31.0 mph 78 % 0.00 in 0 W/m2
20:37 38.5 °F 31.6 °F 29.73 in West 21.0 mph 29.0 mph 76 % 0.00 in 0 W/m2
20:42 38.5 °F 31.6 °F 29.73 in WNW 18.0 mph 27.0 mph 76 % 0.00 in 0 W/m2
20:47 38.5 °F 31.2 °F 29.73 in West 19.0 mph 30.0 mph 75 % 0.00 in 0 W/m2
20:57 38.7 °F 31.4 °F 29.73 in West 18.0 mph 27.0 mph 75 % 0.00 in 0 W/m2
21:02 38.7 °F 31.4 °F 29.74 in West 14.0 mph 24.0 mph 75 % 0.00 in 0 W/m2
21:07 38.5 °F 31.2 °F 29.74 in West 15.0 mph 25.0 mph 75 % 0.00 in 0 W/m2
21:12 38.5 °F 31.2 °F 29.74 in West 14.0 mph 22.0 mph 75 % 0.00 in 0 W/m2
21:17 38.5 °F 30.9 °F 29.74 in West 13.0 mph 22.0 mph 74 % 0.00 in 0 W/m2
21:22 38.5 °F 30.9 °F 29.74 in WNW 13.0 mph 24.0 mph 74 % 0.00 in 0 W/m2
21:27 38.5 °F 30.6 °F 29.74 in WNW 13.0 mph 23.0 mph 73 % 0.00 in 0 W/m2
21:32 38.3 °F 30.4 °F 29.75 in WNW 13.0 mph 21.0 mph 73 % 0.00 in 0 W/m2
21:37 38.3 °F 30.4 °F 29.75 in WNW 14.0 mph 23.0 mph 73 % 0.00 in 0 W/m2
21:42 38.3 °F 30.4 °F 29.75 in WNW 13.0 mph 20.0 mph 73 % 0.00 in 0 W/m2
21:47 38.1 °F 30.2 °F 29.74 in West 9.0 mph 13.0 mph 73 % 0.00 in 0 W/m2
21:52 37.9 °F 30.1 °F 29.74 in West 9.0 mph 13.0 mph 73 % 0.00 in 0 W/m2
21:57 37.9 °F 30.4 °F 29.74 in WNW 9.0 mph 19.0 mph 74 % 0.00 in 0 W/m2
22:02 37.9 °F 30.1 °F 29.74 in West 9.0 mph 15.0 mph 73 % 0.00 in 0 W/m2
22:07 37.9 °F 30.1 °F 29.74 in West 10.0 mph 20.0 mph 73 % 0.00 in 0 W/m2
22:08 37.9 °F 30.1 °F 29.74 in West 10.0 mph 20.0 mph 73 % 0.00 in 0 W/m2
22:13 37.9 °F 30.1 °F 29.74 in West 9.0 mph 13.0 mph 73 % 0.00 in 0 W/m2
22:18 37.9 °F 30.1 °F 29.73 in West 9.0 mph 16.0 mph 73 % 0.00 in 0 W/m2
22:23 37.8 °F 30.2 °F 29.74 in West 8.0 mph 12.0 mph 74 % 0.00 in 0 W/m2
22:28 37.6 °F 30.4 °F 29.73 in West 10.0 mph 15.0 mph 75 % 0.00 in 0 W/m2
22:38 37.2 °F 30.7 °F 29.74 in WNW 7.0 mph 15.0 mph 77 % 0.00 in 0 W/m2
22:43 37.2 °F 30.7 °F 29.74 in West 8.0 mph 15.0 mph 77 % 0.00 in 0 W/m2
22:53 37.2 °F 30.7 °F 29.74 in West 7.0 mph 11.0 mph 77 % 0.00 in 0 W/m2
22:55 37.4 °F 30.8 °F 29.74 in West 9.0 mph 16.0 mph 77 % 0.00 in 0 W/m2
23:00 37.6 °F 30.7 °F 29.74 in WNW 8.0 mph 14.0 mph 76 % 0.00 in 0 W/m2
23:05 37.6 °F 31.0 °F 29.74 in West 4.0 mph 8.0 mph 77 % 0.00 in 0 W/m2
23:10 37.8 °F 31.2 °F 29.74 in West 3.0 mph 6.0 mph 77 % 0.00 in 0 W/m2
23:15 37.8 °F 31.2 °F 29.74 in West 3.0 mph 7.0 mph 77 % 0.00 in 0 W/m2
23:20 37.8 °F 31.2 °F 29.74 in West 7.0 mph 10.0 mph 77 % 0.00 in 0 W/m2
23:25 37.8 °F 31.2 °F 29.74 in West 9.0 mph 13.0 mph 77 % 0.00 in 0 W/m2
23:30 37.9 °F 32.0 °F 29.74 in West 10.0 mph 15.0 mph 79 % 0.00 in 0 W/m2
23:35 37.9 °F 32.0 °F 29.74 in West 12.0 mph 20.0 mph 79 % 0.00 in 0 W/m2
23:40 37.9 °F 32.6 °F 29.75 in WNW 14.0 mph 23.0 mph 81 % 0.00 in 0 W/m2
23:45 37.9 °F 33.2 °F 29.75 in WNW 13.0 mph 22.0 mph 83 % 0.00 in 0 W/m2
23:50 37.8 °F 33.4 °F 29.75 in WNW 9.0 mph 15.0 mph 84 % 0.00 in 0 W/m2
23:55 37.2 °F 33.1 °F 29.75 in NW 6.0 mph 9.0 mph 85 % 0.01 in 0 W/m2
Delerius-Weather
Compliments of Weather Underground - 2.25 mb

Data updates at regular intervals.